Time;durP1;ratioP1;P1;durP2;ratioP2;P2;SDS_P1;SDS_P2;PMS_P1;PMS_P2;Temp;Humidity;BMP_temperature;BMP_pressure;BME280_temperature;BME280_humidity;BME280_pressure;Samples;Min_cycle;Max_cycle;Signal;HPM_P1;HPM_P2
2023/08/13 00:00:22;;;;;;;19.77;6.63;;;;;;;26.14;79.74;100226.78;10495180;28;20119;-71
2023/08/13 00:05:23;;;;;;;16.80;7.20;;;;;;;26.00;77.66;100185.72;10494617;28;20048;-71
2023/08/13 00:10:24;;;;;;;17.88;7.10;;;;;;;25.92;77.69;100168.03;10494839;28;20451;-71
2023/08/13 00:15:24;;;;;;;15.50;7.15;;;;;;;26.20;77.93;100214.81;10494486;28;20400;-71
2023/08/13 00:20:25;;;;;;;17.70;7.22;;;;;;;25.74;78.30;100158.50;10495141;28;20147;-75
2023/08/13 00:25:26;;;;;;;17.85;7.38;;;;;;;25.67;77.64;100144.34;10496847;28;20029;-71
2023/08/13 00:30:27;;;;;;;16.17;6.90;;;;;;;25.61;77.37;100150.09;10502985;28;20507;-71
2023/08/13 00:35:27;;;;;;;14.95;7.20;;;;;;;25.49;78.26;100155.78;10502188;28;20037;-72
2023/08/13 00:40:28;;;;;;;14.95;7.22;;;;;;;25.84;78.40;100206.66;10502199;28;20047;-76
2023/08/13 00:45:33;;;;;;;14.88;7.15;;;;;;;25.73;78.92;100210.47;10501764;28;20036;-72
2023/08/13 00:50:35;;;;;;;22.75;7.47;;;;;;;25.50;78.83;100163.66;10501679;28;20182;-71
2023/08/13 00:55:36;;;;;;;16.80;7.30;;;;;;;25.64;78.36;100193.88;10500840;28;20041;-71
2023/08/13 01:00:37;;;;;;;14.15;7.18;;;;;;;25.91;78.32;100230.91;10501455;28;20037;-72
2023/08/13 01:06:14;;;;;;;17.70;7.57;;;;;;;26.00;78.40;100234.72;10501526;28;20044;-71
2023/08/13 01:11:21;;;;;;;25.70;7.97;;;;;;;26.08;79.34;100244.22;10497872;28;20052;-71
2023/08/13 01:16:23;;;;;;;21.13;7.32;;;;;;;26.11;77.25;100243.69;10500219;28;20121;-71
2023/08/13 01:21:24;;;;;;;14.00;7.50;;;;;;;25.96;76.77;100212.66;10500241;28;20052;-71
2023/08/13 01:26:33;;;;;;;17.52;6.72;;;;;;;26.05;77.83;100233.88;10500369;28;20051;-71
2023/08/13 01:31:39;;;;;;;54.30;10.57;;;;;;;26.04;78.52;100243.16;10500528;28;20041;-72
2023/08/13 01:36:40;;;;;;;69.53;9.55;;;;;;;25.92;78.91;100248.88;10497715;28;20047;-72
2023/08/13 01:41:50;;;;;;;17.05;7.43;;;;;;;25.71;78.23;100218.09;10499693;28;20041;-72
2023/08/13 01:46:51;;;;;;;13.48;7.28;;;;;;;25.94;77.44;100254.88;10499120;28;20048;-72
2023/08/13 01:51:52;;;;;;;13.93;6.90;;;;;;;25.95;77.44;100262.75;10499594;28;20128;-71
2023/08/13 01:56:53;;;;;;;23.60;7.82;;;;;;;25.98;77.34;100282.34;10498978;28;20099;-71
2023/08/13 02:01:54;;;;;;;13.73;6.65;;;;;;;25.92;77.13;100285.06;10498817;28;20044;-72
2023/08/13 02:06:54;;;;;;;25.05;7.57;;;;;;;25.96;77.57;100277.97;10498094;28;20045;-72
2023/08/13 02:11:55;;;;;;;62.58;9.48;;;;;;;25.96;77.48;100282.59;10498624;28;20074;-72
2023/08/13 02:16:56;;;;;;;28.02;7.53;;;;;;;25.97;77.39;100286.97;10498185;28;20037;-71
2023/08/13 02:21:56;;;;;;;26.67;9.15;;;;;;;25.56;76.86;100221.59;10497401;28;20408;-71
2023/08/13 02:26:57;;;;;;;38.45;9.48;;;;;;;25.90;76.58;100254.56;10497745;28;20036;-71
2023/08/13 02:31:58;;;;;;;35.17;9.77;;;;;;;26.04;76.74;100275.81;10497376;28;20045;-71
2023/08/13 02:36:59;;;;;;;56.13;10.43;;;;;;;26.05;77.11;100272.81;10496888;28;20075;-71
2023/08/13 02:42:00;;;;;;;25.23;8.00;;;;;;;26.05;77.06;100248.31;10497411;28;20094;-71
2023/08/13 02:47:01;;;;;;;43.67;9.00;;;;;;;26.35;75.99;100273.88;10496457;28;20090;-71
2023/08/13 02:52:02;;;;;;;49.33;9.80;;;;;;;26.48;74.93;100267.06;10495469;28;20072;-72
2023/08/13 02:57:02;;;;;;;21.98;7.30;;;;;;;26.67;73.74;100268.13;10496423;28;20040;-71
2023/08/13 03:02:03;;;;;;;25.80;7.90;;;;;;;26.73;73.24;100226.13;10495990;28;20047;-72
2023/08/13 03:07:04;;;;;;;19.10;7.22;;;;;;;27.29;72.71;100302.28;10495950;28;20063;-71
2023/08/13 03:12:06;;;;;;;19.25;7.43;;;;;;;27.33;73.49;100324.34;10495701;28;20059;-72
2023/08/13 03:17:07;;;;;;;10.50;6.70;;;;;;;27.38;73.16;100342.59;10496779;28;20080;-71
2023/08/13 03:22:08;;;;;;;13.15;6.45;;;;;;;27.44;72.16;100342.28;10496115;28;20130;-71
2023/08/13 03:27:09;;;;;;;34.75;7.70;;;;;;;27.12;72.26;100290.84;10495502;28;20108;-72
2023/08/13 03:32:10;;;;;;;20.15;6.30;;;;;;;27.53;70.49;100337.06;10495956;28;20089;-72
2023/08/13 03:37:10;;;;;;;22.55;6.15;;;;;;;27.93;70.27;100354.31;10495890;28;20036;-71
2023/08/13 03:42:11;;;;;;;15.60;6.13;;;;;;;28.03;69.51;100364.34;10495076;28;20063;-71
2023/08/13 03:47:12;;;;;;;16.90;6.38;;;;;;;27.95;67.89;100368.50;10495637;28;20041;-71
2023/08/13 03:52:12;;;;;;;18.88;6.70;;;;;;;27.86;66.96;100345.66;10495782;28;20048;-71
2023/08/13 03:57:13;;;;;;;11.55;7.18;;;;;;;27.95;65.78;100360.31;10496194;28;20037;-71
2023/08/13 04:02:14;;;;;;;24.17;7.20;;;;;;;27.78;66.52;100355.22;10499179;28;20488;-71
2023/08/13 04:07:15;;;;;;;20.95;7.22;;;;;;;27.61;66.60;100339.22;10502898;28;20050;-71
2023/08/13 04:12:15;;;;;;;13.80;6.45;;;;;;;27.59;67.01;100346.06;10503218;28;20067;-71
2023/08/13 04:17:16;;;;;;;25.08;7.50;;;;;;;27.56;67.11;100354.78;10503006;28;20048;-74
2023/08/13 04:22:17;;;;;;;21.23;7.75;;;;;;;27.65;66.96;100364.84;10502412;28;20480;-71
2023/08/13 04:27:18;;;;;;;16.00;6.72;;;;;;;27.51;66.46;100298.31;10503053;28;20052;-71
2023/08/13 04:32:19;;;;;;;36.10;8.48;;;;;;;28.65;65.64;100322.59;10502295;28;20060;-71
2023/08/13 04:37:19;;;;;;;21.33;6.97;;;;;;;29.46;62.10;100268.00;10501766;28;20044;-72
2023/08/13 04:42:20;;;;;;;16.25;6.50;;;;;;;30.76;59.29;100378.84;10502383;28;20028;-70
2023/08/13 04:47:21;;;;;;;13.30;6.50;;;;;;;31.29;57.50;100361.94;10502352;28;20050;-71
2023/08/13 04:52:22;;;;;;;26.50;7.35;;;;;;;31.40;57.47;100375.47;10501555;28;20036;-71
2023/08/13 04:57:22;;;;;;;14.10;6.20;;;;;;;31.04;57.38;100357.75;10501407;28;20468;-71
2023/08/13 05:02:23;;;;;;;10.10;6.07;;;;;;;31.02;56.59;100342.72;10501264;28;20067;-71
2023/08/13 05:07:24;;;;;;;20.88;6.50;;;;;;;30.89;56.48;100339.66;10501144;28;20044;-71
2023/08/13 05:12:24;;;;;;;23.90;6.38;;;;;;;30.73;56.43;100346.53;10500118;28;20071;-71
2023/08/13 05:17:25;;;;;;;19.58;6.20;;;;;;;30.98;55.68;100344.44;10501408;28;20052;-72
2023/08/13 05:22:26;;;;;;;12.43;5.72;;;;;;;31.30;55.41;100349.81;10500857;28;20044;-71
2023/08/13 05:27:27;;;;;;;19.05;7.00;;;;;;;31.19;54.59;100362.13;10499840;28;20047;-70
2023/08/13 05:32:28;;;;;;;15.15;6.43;;;;;;;30.87;54.71;100341.91;10500095;28;20400;-71
2023/08/13 05:37:29;;;;;;;19.55;6.05;;;;;;;31.16;54.40;100349.00;10499924;28;20032;-71
2023/08/13 05:42:29;;;;;;;20.63;6.70;;;;;;;31.70;53.85;100344.56;10499989;28;20036;-74
2023/08/13 05:47:30;;;;;;;21.08;7.95;;;;;;;32.22;52.37;100358.78;10499610;28;20037;-71
2023/08/13 05:52:31;;;;;;;46.25;9.00;;;;;;;32.17;51.86;100294.88;10499649;28;20047;-71
2023/08/13 05:57:31;;;;;;;64.95;10.80;;;;;;;32.80;50.73;100350.72;10498601;28;20044;-70
2023/08/13 06:02:32;;;;;;;35.53;8.25;;;;;;;32.61;50.07;100313.25;10498393;28;20452;-72
2023/08/13 06:07:36;;;;;;;27.58;5.88;;;;;;;33.15;50.01;100335.97;10499251;28;20060;-71
2023/08/13 06:12:36;;;;;;;10.90;5.32;;;;;;;33.22;49.13;100334.69;10498525;28;20057;-71
2023/08/13 06:17:37;;;;;;;13.63;5.65;;;;;;;33.37;49.16;100331.50;10497789;28;20048;-71
2023/08/13 06:22:38;;;;;;;12.77;5.60;;;;;;;33.56;48.76;100331.22;10498075;28;20036;-71
2023/08/13 06:27:39;;;;;;;11.60;5.60;;;;;;;33.81;48.80;100329.63;10498219;28;20392;-71
2023/08/13 06:32:39;;;;;;;79.03;11.45;;;;;;;33.96;47.73;100312.59;10497542;28;20045;-72
2023/08/13 06:37:40;;;;;;;14.65;5.57;;;;;;;33.96;47.03;100303.50;10497501;28;20123;-71
2023/08/13 06:42:41;;;;;;;10.52;5.75;;;;;;;34.09;46.59;100316.31;10496664;28;20044;-72
2023/08/13 06:47:42;;;;;;;29.30;6.45;;;;;;;34.16;47.34;100277.22;10497351;28;20041;-72
2023/08/13 06:52:42;;;;;;;59.85;9.50;;;;;;;34.42;46.48;100330.34;10496922;28;20051;-71
2023/08/13 06:57:43;;;;;;;59.90;8.73;;;;;;;34.20;47.16;100319.56;10496032;28;20135;-71
2023/08/13 07:02:44;;;;;;;12.88;5.65;;;;;;;34.03;46.25;100309.34;10496121;28;20098;-72
2023/08/13 07:07:45;;;;;;;15.73;4.95;;;;;;;33.90;46.89;100300.09;10496542;28;20155;-71
2023/08/13 07:12:46;;;;;;;13.20;5.60;;;;;;;33.99;47.06;100311.94;10495982;28;20096;-71
2023/08/13 07:17:46;;;;;;;14.70;5.60;;;;;;;33.57;46.60;100231.75;10496238;28;20464;-70
2023/08/13 07:22:47;;;;;;;11.13;5.25;;;;;;;33.97;46.33;100281.13;10496283;28;20062;-70
2023/08/13 07:27:48;;;;;;;12.60;5.97;;;;;;;33.98;46.02;100235.06;10495454;28;20044;-71
2023/08/13 07:32:49;;;;;;;13.43;7.88;;;;;;;34.58;45.48;100280.19;10496255;28;20051;-71
2023/08/13 07:37:50;;;;;;;83.95;48.20;;;;;;;34.40;45.49;100205.75;10495440;28;20504;-72
2023/08/13 07:42:50;;;;;;;22.52;11.07;;;;;;;35.08;42.50;100257.41;10495308;28;20033;-72
2023/08/13 07:47:51;;;;;;;13.82;5.75;;;;;;;35.23;40.63;100267.84;10495692;28;20071;-72
2023/08/13 07:52:52;;;;;;;15.95;4.35;;;;;;;35.43;39.76;100267.03;10495832;28;20040;-72
2023/08/13 07:57:52;;;;;;;13.43;4.55;;;;;;;35.50;37.45;100257.41;10494780;28;20041;-72
2023/08/13 08:02:53;;;;;;;26.85;8.55;;;;;;;35.74;37.65;100249.25;10495863;28;20131;-72
2023/08/13 08:07:54;;;;;;;18.60;6.40;;;;;;;36.11;37.46;100264.03;10495270;28;20045;-72
2023/08/13 08:12:54;;;;;;;14.02;4.78;;;;;;;36.08;37.24;100247.31;10495853;28;20500;-72
2023/08/13 08:17:55;;;;;;;10.73;3.72;;;;;;;36.07;36.76;100229.09;10495072;28;20040;-72
2023/08/13 08:22:56;;;;;;;18.67;4.15;;;;;;;35.58;36.10;100129.47;10494909;28;20045;-71
2023/08/13 08:27:57;;;;;;;14.77;4.28;;;;;;;35.72;36.61;100124.44;10494950;28;20431;-71
2023/08/13 08:32:57;;;;;;;12.33;3.90;;;;;;;36.42;36.86;100204.59;10494473;28;20123;-71
2023/08/13 08:37:58;;;;;;;9.95;3.53;;;;;;;36.26;36.68;100164.97;10495260;28;20041;-71
2023/08/13 08:42:59;;;;;;;17.07;4.33;;;;;;;36.68;36.71;100214.53;10494034;28;20036;-72
2023/08/13 08:48:00;;;;;;;25.50;4.70;;;;;;;36.44;37.14;100151.66;10496836;28;20055;-73
2023/08/13 08:53:01;;;;;;;15.70;4.47;;;;;;;37.09;38.09;100210.66;10502359;28;20048;-77
2023/08/13 08:58:02;;;;;;;24.58;6.65;;;;;;;37.14;37.85;100195.78;10502189;28;20064;-71
2023/08/13 09:03:03;;;;;;;16.10;4.90;;;;;;;37.11;37.62;100188.97;10500917;28;20068;-72
2023/08/13 09:08:13;;;;;;;17.70;4.40;;;;;;;37.04;38.74;100171.34;10501759;28;20048;-72
2023/08/13 09:13:14;;;;;;;21.27;5.28;;;;;;;36.86;39.41;100170.81;10501790;28;20148;-72
2023/08/13 09:18:15;;;;;;;17.00;4.70;;;;;;;36.70;39.60;100168.72;10501718;28;20056;-73
2023/08/13 09:23:24;;;;;;;29.47;4.87;;;;;;;36.69;39.61;100177.41;10500761;28;20032;-72
2023/08/13 09:28:24;;;;;;;22.23;5.43;;;;;;;36.79;39.65;100166.63;10500498;28;20094;-72
2023/08/13 09:33:26;;;;;;;16.03;4.70;;;;;;;36.49;39.32;100107.19;10500891;28;20556;-72
2023/08/13 09:38:27;;;;;;;17.60;4.33;;;;;;;36.81;39.53;100151.66;10500139;28;20048;-72
2023/08/13 09:43:30;;;;;;;20.63;5.35;;;;;;;36.85;39.85;100153.38;10500697;28;20044;-72
2023/08/13 09:48:31;;;;;;;25.25;5.35;;;;;;;37.11;40.03;100166.03;10500208;28;20050;-71
2023/08/13 09:53:34;;;;;;;24.25;5.30;;;;;;;37.15;40.50;100147.53;10499312;28;20041;-72
2023/08/13 09:58:34;;;;;;;22.63;6.10;;;;;;;37.26;40.27;100156.16;10498762;28;20544;-72
2023/08/13 10:03:37;;;;;;;22.27;5.07;;;;;;;37.10;40.94;100118.16;10499497;28;20127;-73
2023/08/13 10:08:38;;;;;;;16.17;4.72;;;;;;;37.25;40.07;100152.59;10498565;28;20065;-72
2023/08/13 10:13:39;;;;;;;15.67;4.30;;;;;;;36.81;39.70;100086.03;10499004;28;20575;-71
2023/08/13 10:18:45;;;;;;;21.20;4.97;;;;;;;36.85;40.14;100088.91;10496680;28;20085;-73
2023/08/13 10:23:46;;;;;;;37.95;6.18;;;;;;;37.38;40.96;100143.06;10496724;28;20508;-73
2023/08/13 10:28:53;;;;;;;32.10;5.90;;;;;;;37.44;41.76;100136.09;10498180;28;20040;-75
2023/08/13 10:34:12;;;;;;;30.42;4.97;;;;;;;37.78;41.25;100133.03;10497773;28;20138;-72
2023/08/13 10:39:57;;;;;;;42.85;6.05;;;;;;;38.08;41.50;100131.47;10497720;28;20063;-73
2023/08/13 10:45:03;;;;;;;17.27;5.22;;;;;;;38.07;39.79;100132.63;10494128;28;20123;-72
2023/08/13 10:50:19;;;;;;;17.50;5.07;;;;;;;38.24;39.16;100119.53;10497681;28;20460;-72
2023/08/13 10:55:24;;;;;;;17.58;5.50;;;;;;;38.21;39.21;100118.28;10496859;28;20466;-72
2023/08/13 11:00:27;;;;;;;21.73;5.35;;;;;;;38.35;39.30;100117.81;10497481;28;20125;-73
2023/08/13 11:05:28;;;;;;;21.48;5.13;;;;;;;38.57;38.26;100113.59;10495808;28;20052;-72
2023/08/13 11:10:30;;;;;;;19.57;6.27;;;;;;;38.39;37.88;100090.16;10496061;28;20135;-72
2023/08/13 11:15:30;;;;;;;19.35;4.80;;;;;;;38.14;37.07;100054.31;10496426;28;20052;-72
2023/08/13 11:20:31;;;;;;;14.67;4.47;;;;;;;38.37;37.25;100091.31;10496841;28;20052;-72
2023/08/13 11:25:32;;;;;;;25.30;5.07;;;;;;;38.51;36.47;100104.75;10497598;28;20050;-71
2023/08/13 11:30:33;;;;;;;18.97;5.60;;;;;;;38.56;36.98;100100.84;10496097;28;20045;-71
2023/08/13 11:35:34;;;;;;;20.25;4.72;;;;;;;38.60;35.88;100085.09;10494673;28;20080;-71
2023/08/13 11:40:36;;;;;;;16.50;5.10;;;;;;;38.71;35.28;100113.91;10495916;28;20046;-71
2023/08/13 11:45:38;;;;;;;22.90;5.38;;;;;;;38.57;35.13;100099.72;10495414;28;20119;-73
2023/08/13 11:50:39;;;;;;;16.67;5.00;;;;;;;38.22;35.26;100033.09;10496012;28;20488;-71
2023/08/13 11:55:42;;;;;;;;;;;;;;;38.94;35.28;100102.09;10495894;28;20066;-72
2023/08/13 12:00:43;;;;;;;19.40;4.78;;;;;;;37.98;36.12;100078.50;10495507;28;20357;-72
2023/08/13 12:05:43;;;;;;;17.23;4.93;;;;;;;37.32;37.44;100033.66;10495329;28;20044;-72
2023/08/13 12:10:44;;;;;;;22.37;5.03;;;;;;;37.16;36.99;100030.88;10495354;28;20700;-71
2023/08/13 12:15:45;;;;;;;21.57;5.63;;;;;;;37.07;36.81;100026.66;10495052;28;20056;-72
2023/08/13 12:20:46;;;;;;;22.17;4.87;;;;;;;37.53;36.71;100085.28;10494876;28;20067;-71
2023/08/13 12:25:46;;;;;;;25.47;5.17;;;;;;;37.69;36.78;100078.59;10503486;28;20044;-71
2023/08/13 12:30:47;;;;;;;21.73;4.50;;;;;;;37.50;36.12;100053.53;10501124;28;20415;-72
2023/08/13 12:35:48;;;;;;;19.23;5.03;;;;;;;37.43;36.62;100018.13;10502311;28;20049;-72
2023/08/13 12:40:49;;;;;;;22.13;4.80;;;;;;;37.91;36.08;100065.25;10501617;28;20468;-72
2023/08/13 12:45:49;;;;;;;23.17;5.03;;;;;;;37.76;35.77;100068.84;10502686;28;20123;-72
2023/08/13 12:50:50;;;;;;;34.17;6.03;;;;;;;37.37;36.62;100041.72;10502121;28;20036;-74
2023/08/13 12:55:51;;;;;;;19.63;4.60;;;;;;;37.75;36.09;100051.38;10500860;28;20530;-72
2023/08/13 13:00:52;;;;;;;23.40;4.55;;;;;;;38.10;35.06;100048.69;10501512;28;20036;-72
2023/08/13 13:05:53;;;;;;;24.37;5.07;;;;;;;38.01;34.90;100041.75;10501374;28;20166;-72
2023/08/13 13:10:54;;;;;;;15.77;4.40;;;;;;;38.02;34.87;100010.84;10500879;28;20055;-73
2023/08/13 13:15:55;;;;;;;17.33;4.50;;;;;;;38.17;34.07;100025.06;10501398;28;20408;-72
2023/08/13 13:20:56;;;;;;;25.53;5.37;;;;;;;38.62;34.14;100066.09;10501328;28;20040;-72
2023/08/13 13:25:56;;;;;;;18.03;4.87;;;;;;;38.48;34.57;100060.25;10500043;28;20041;-72
2023/08/13 13:30:57;;;;;;;30.90;5.80;;;;;;;38.15;34.69;100025.44;10500380;28;20139;-72
2023/08/13 13:35:58;;;;;;;17.50;4.60;;;;;;;38.03;34.93;100056.84;10498938;28;20072;-72
2023/08/13 13:40:59;;;;;;;17.70;4.47;;;;;;;37.65;34.81;100047.19;10501128;28;20127;-71
2023/08/13 13:45:59;;;;;;;22.47;5.47;;;;;;;37.57;35.20;100072.31;10499883;28;20817;-71
2023/08/13 13:51:00;;;;;;;31.27;5.27;;;;;;;37.35;35.34;100059.84;10499610;28;20044;-72
2023/08/13 13:56:01;;;;;;;30.20;5.40;;;;;;;37.21;36.56;100058.28;10499239;28;20046;-71
2023/08/13 14:01:02;;;;;;;18.50;4.57;;;;;;;37.18;36.55;100066.50;10498515;28;20032;-71
2023/08/13 14:06:03;;;;;;;29.20;5.33;;;;;;;36.92;37.52;100042.84;10498941;28;20119;-72
2023/08/13 14:11:04;;;;;;;26.63;4.70;;;;;;;37.06;37.25;100050.75;10499375;28;20053;-72
2023/08/13 14:16:05;;;;;;;13.50;4.33;;;;;;;36.64;37.17;99987.50;10498168;28;20535;-72
2023/08/13 14:21:05;;;;;;;20.13;4.80;;;;;;;36.95;37.54;100060.72;10498273;28;20040;-72
2023/08/13 14:26:08;;;;;;;22.27;4.80;;;;;;;36.37;37.76;100002.09;10497500;28;20047;-72
2023/08/13 14:31:08;;;;;;;16.17;4.50;;;;;;;36.26;38.30;100010.09;10497834;28;20044;-72
2023/08/13 14:36:09;;;;;;;24.73;6.17;;;;;;;36.53;39.76;100072.16;10497818;28;20047;-73
2023/08/13 14:41:10;;;;;;;37.03;5.87;;;;;;;36.28;40.03;100055.56;10497990;28;20040;-72
2023/08/13 14:46:10;;;;;;;45.73;5.70;;;;;;;36.12;41.30;100054.69;10496706;28;20032;-72
2023/08/13 14:51:11;;;;;;;58.40;8.07;;;;;;;35.58;43.74;100014.25;10496644;28;20044;-72
2023/08/13 14:56:12;;;;;;;22.92;5.97;;;;;;;35.80;42.81;100078.50;10496438;28;20480;-72
2023/08/13 15:01:13;;;;;;;30.10;7.95;;;;;;;35.76;43.54;100088.63;10496926;28;20067;-72
2023/08/13 15:06:14;;;;;;;29.60;10.23;;;;;;;35.38;44.66;100060.09;10496748;28;20040;-72
2023/08/13 15:11:15;;;;;;;86.53;10.40;;;;;;;35.41;46.66;100089.00;10495798;28;20084;-72
2023/08/13 15:16:16;;;;;;;49.90;9.20;;;;;;;35.20;48.37;100097.31;10495946;28;20059;-72
2023/08/13 15:21:18;;;;;;;73.03;8.75;;;;;;;34.80;49.38;100072.97;10495859;28;20052;-72
2023/08/13 15:26:19;;;;;;;48.63;7.20;;;;;;;34.25;49.77;100024.34;10495035;28;20036;-72
2023/08/13 15:31:20;;;;;;;33.10;6.65;;;;;;;33.67;48.89;99979.13;10494788;28;20045;-72
2023/08/13 15:36:20;;;;;;;35.25;6.03;;;;;;;33.99;49.99;100069.41;10495978;28;20487;-72
2023/08/13 15:41:21;;;;;;;67.20;8.65;;;;;;;33.75;52.29;100067.25;10495714;28;20040;-76
2023/08/13 15:46:22;;;;;;;93.13;10.25;;;;;;;33.28;53.56;100025.09;10496346;28;20041;-72
2023/08/13 15:51:23;;;;;;;69.63;9.13;;;;;;;32.77;54.39;99989.06;10495535;28;20040;-72
2023/08/13 15:56:23;;;;;;;95.03;10.15;;;;;;;33.21;56.30;100097.16;10497426;28;20064;-72
2023/08/13 16:01:24;;;;;;;135.68;13.70;;;;;;;32.87;57.01;100086.94;10504434;28;20369;-73
2023/08/13 16:06:25;;;;;;;58.58;9.48;;;;;;;32.77;57.28;100103.78;10504420;28;20079;-72
2023/08/13 16:11:26;;;;;;;79.18;18.75;;;;;;;32.29;57.87;100059.53;10503657;28;20056;-72
2023/08/13 16:16:26;;;;;;;131.95;41.45;;;;;;;32.29;59.32;100099.94;10502697;28;20044;-72
2023/08/13 16:21:27;;;;;;;139.23;39.72;;;;;;;32.08;59.91;100116.22;10501213;28;20518;-73
2023/08/13 16:26:28;;;;;;;81.20;31.13;;;;;;;31.94;60.27;100126.50;10501900;28;20044;-72
2023/08/13 16:31:29;;;;;;;54.67;20.85;;;;;;;31.43;59.92;100084.69;10501991;28;20090;-72
2023/08/13 16:36:30;;;;;;;58.30;19.35;;;;;;;31.24;59.71;100082.13;10502264;28;20040;-72
2023/08/13 16:41:30;;;;;;;74.75;16.85;;;;;;;30.98;60.34;100053.69;10502271;28;20047;-72
2023/08/13 16:46:31;;;;;;;93.00;19.42;;;;;;;31.50;61.04;100155.59;10502928;28;20127;-72
2023/08/13 16:51:34;;;;;;;79.28;20.38;;;;;;;31.40;61.81;100156.66;10501766;28;20042;-72
2023/08/13 16:56:36;;;;;;;79.55;17.20;;;;;;;31.33;61.73;100150.78;10483266;28;20142;-72
2023/08/13 17:01:36;;;;;;;32.50;9.50;;;;;;;31.29;62.43;100171.72;10502031;28;20403;-72
2023/08/13 17:06:37;;;;;;;38.58;7.32;;;;;;;31.12;63.41;100175.16;10481054;28;20037;-73
2023/08/13 17:11:38;;;;;;;91.55;8.35;;;;;;;31.01;60.14;100160.84;10458573;28;20218;-72
2023/08/13 17:16:39;;;;;;;15.45;5.25;;;;;;;30.83;58.30;100124.22;10463287;28;20048;-73
2023/08/13 17:21:40;;;;;;;26.90;5.38;;;;;;;30.95;57.01;100142.06;10480265;28;20044;-72
2023/08/13 17:26:40;;;;;;;24.70;5.15;;;;;;;31.20;54.92;100190.06;10488212;28;20072;-72
2023/08/13 17:31:41;;;;;;;18.40;5.65;;;;;;;30.92;54.78;100135.28;10456791;28;20124;-72
2023/08/13 17:36:42;;;;;;;21.08;5.18;;;;;;;31.26;54.27;100202.53;10463565;28;20122;-72
2023/08/13 17:41:43;;;;;;;33.78;6.80;;;;;;;31.15;55.03;100196.47;10457612;28;20048;-72
2023/08/13 17:46:44;;;;;;;23.27;5.18;;;;;;;30.96;55.84;100179.34;10466426;28;20048;-73
2023/08/13 17:51:55;;;;;;;20.17;5.63;;;;;;;31.01;55.21;100198.44;10477490;28;20107;-73
2023/08/13 17:56:56;;;;;;;16.25;4.82;;;;;;;30.75;55.96;100192.66;10459767;28;20106;-73
2023/08/13 18:01:57;;;;;;;26.95;5.93;;;;;;;30.68;56.68;100213.06;10476013;28;20097;-73
2023/08/13 18:06:58;;;;;;;13.88;5.28;;;;;;;30.64;56.86;100216.75;10484503;28;20143;-73
2023/08/13 18:11:59;;;;;;;12.13;5.53;;;;;;;30.45;56.74;100195.75;10477565;28;20080;-73
2023/08/13 18:17:04;;;;;;;17.58;5.50;;;;;;;30.66;55.29;100222.72;10475606;28;20047;-73
2023/08/13 18:22:25;;;;;;;17.10;5.22;;;;;;;30.38;53.55;100167.91;10478438;28;20139;-72
2023/08/13 18:27:39;;;;;;;18.63;5.22;;;;;;;30.82;53.33;100224.09;10457131;28;20053;-74
2023/08/13 18:32:40;;;;;;;14.70;5.30;;;;;;;31.05;52.40;100241.44;10457227;28;20052;-71
2023/08/13 18:37:43;;;;;;;26.60;5.95;;;;;;;31.01;52.96;100223.13;10456562;28;20115;-71
2023/08/13 18:42:44;;;;;;;20.65;5.45;;;;;;;31.06;53.51;100236.75;10455810;28;20128;-71
2023/08/13 18:47:45;;;;;;;22.85;5.47;;;;;;;30.97;53.55;100236.66;10456432;28;20053;-73
2023/08/13 18:52:46;;;;;;;17.23;5.07;;;;;;;30.87;53.89;100234.94;10455188;28;20045;-72
2023/08/13 18:57:47;;;;;;;20.92;5.63;;;;;;;30.83;54.37;100241.34;10455561;28;20052;-72
2023/08/13 19:02:47;;;;;;;9.85;4.72;;;;;;;30.35;54.74;100181.41;10454891;28;20044;-72
2023/08/13 19:07:48;;;;;;;18.40;5.47;;;;;;;30.67;55.09;100254.53;10454940;28;20044;-72
2023/08/13 19:12:49;;;;;;;16.00;4.70;;;;;;;30.60;55.66;100260.38;10455561;28;20056;-72
2023/08/13 19:17:50;;;;;;;17.88;4.55;;;;;;;29.70;55.57;100133.81;10455088;28;20090;-71
2023/08/13 19:22:50;;;;;;;12.55;4.82;;;;;;;30.40;55.99;100264.34;10456697;28;20041;-72
2023/08/13 19:27:51;;;;;;;12.38;4.75;;;;;;;29.91;56.46;100210.13;10477319;28;20408;-73
2023/08/13 19:32:52;;;;;;;11.18;4.90;;;;;;;30.24;55.77;100272.03;10466608;28;20080;-72
2023/08/13 19:37:53;;;;;;;11.65;4.63;;;;;;;30.21;55.54;100291.84;10485081;28;20490;-72
2023/08/13 19:42:54;;;;;;;8.63;5.18;;;;;;;30.07;55.59;100296.41;10495643;28;20052;-72
2023/08/13 19:47:54;;;;;;;13.90;6.30;;;;;;;30.00;55.94;100304.19;10495630;28;20082;-72
2023/08/13 19:52:55;;;;;;;15.18;5.80;;;;;;;29.80;56.61;100311.63;10495568;28;20044;-73
2023/08/13 19:57:56;;;;;;;13.85;5.50;;;;;;;29.75;57.06;100306.22;10495622;28;20044;-72
2023/08/13 20:02:57;;;;;;;16.05;7.05;;;;;;;29.57;57.21;100291.41;10495275;28;20040;-72
2023/08/13 20:07:58;;;;;;;13.30;5.50;;;;;;;29.22;57.36;100226.22;10486131;28;20673;-72
2023/08/13 20:12:59;;;;;;;17.35;5.32;;;;;;;29.64;56.88;100298.44;10454091;28;20174;-72
2023/08/13 20:18:00;;;;;;;10.45;5.45;;;;;;;29.69;57.28;100304.66;10454802;28;20127;-72
2023/08/13 20:23:00;;;;;;;11.52;4.93;;;;;;;29.29;57.07;100249.41;10453616;28;20127;-72
2023/08/13 20:28:01;;;;;;;13.70;5.63;;;;;;;29.08;57.25;100207.03;10453477;28;20128;-72
2023/08/13 20:33:02;;;;;;;19.40;5.22;;;;;;;29.44;57.81;100286.69;10451776;28;20411;-71
2023/08/13 20:38:03;;;;;;;15.77;4.90;;;;;;;29.44;57.55;100299.53;10453883;28;20064;-72
2023/08/13 20:43:04;;;;;;;12.40;4.57;;;;;;;29.34;57.76;100281.31;10455532;28;20040;-72
2023/08/13 20:48:05;;;;;;;11.48;4.88;;;;;;;29.25;58.47;100285.84;10460814;28;20076;-72
2023/08/13 20:53:06;;;;;;;9.32;4.38;;;;;;;29.09;58.81;100286.03;10460654;28;20077;-72
2023/08/13 20:58:06;;;;;;;23.27;5.90;;;;;;;28.36;59.80;100205.13;10460831;28;20075;-72
2023/08/13 21:03:07;;;;;;;12.25;4.85;;;;;;;28.48;60.01;100212.09;10460730;28;20040;-71
2023/08/13 21:08:08;;;;;;;20.60;5.00;;;;;;;28.64;60.56;100258.09;10459984;28;20068;-72
2023/08/13 21:13:09;;;;;;;10.68;4.70;;;;;;;28.22;61.11;100213.16;10458832;28;20065;-72
2023/08/13 21:18:09;;;;;;;11.75;5.35;;;;;;;28.67;61.58;100278.56;10459970;28;20044;-73
2023/08/13 21:23:10;;;;;;;21.67;5.38;;;;;;;28.26;61.56;100213.41;10458959;28;20129;-72
2023/08/13 21:28:11;;;;;;;8.52;4.70;;;;;;;28.04;62.41;100202.97;10459260;28;20041;-72
2023/08/13 21:33:12;;;;;;;13.65;5.20;;;;;;;28.29;62.87;100261.19;10459124;28;20508;-72
2023/08/13 21:38:12;;;;;;;9.80;4.78;;;;;;;28.13;63.18;100244.94;10457969;28;20041;-72
2023/08/13 21:43:13;;;;;;;19.23;5.30;;;;;;;27.85;63.82;100215.69;10458281;28;20033;-72
2023/08/13 21:48:14;;;;;;;18.63;5.40;;;;;;;28.03;64.36;100274.25;10467581;28;20117;-71
2023/08/13 21:53:15;;;;;;;11.30;4.90;;;;;;;27.61;64.63;100216.44;10461156;28;20048;-71
2023/08/13 21:58:17;;;;;;;7.93;4.65;;;;;;;27.75;65.20;100282.88;10484199;28;20040;-72
2023/08/13 22:03:18;;;;;;;12.45;5.47;;;;;;;27.73;65.29;100287.00;10499812;28;20086;-71
2023/08/13 22:08:19;;;;;;;15.85;4.90;;;;;;;27.67;65.72;100286.25;10499051;28;20040;-71
2023/08/13 22:13:20;;;;;;;15.00;5.30;;;;;;;27.55;66.18;100293.94;10498180;28;20056;-72
2023/08/13 22:18:20;;;;;;;22.65;5.22;;;;;;;27.01;65.96;100211.03;10470786;28;20051;-71
2023/08/13 22:23:21;;;;;;;28.23;5.10;;;;;;;27.31;66.08;100275.53;10456553;28;20099;-71
2023/08/13 22:28:22;;;;;;;15.77;5.05;;;;;;;26.57;66.16;100183.72;10456892;28;20040;-71
2023/08/13 22:33:23;;;;;;;10.63;4.63;;;;;;;27.25;66.29;100303.94;10455779;28;20581;-71
2023/08/13 22:38:26;;;;;;;12.43;5.00;;;;;;;27.05;66.78;100285.72;10456562;28;20045;-72
2023/08/13 22:43:27;;;;;;;15.15;5.10;;;;;;;27.23;66.97;100300.66;10456523;28;20076;-72
2023/08/13 22:48:28;;;;;;;20.75;4.97;;;;;;;27.23;67.03;100306.13;10455735;28;20528;-71